Time;durP1;ratioP1;P1;durP2;ratioP2;P2;SDS_P1;SDS_P2;PMS_P1;PMS_P2;Temp;Humidity;BMP_temperature;BMP_pressure;BME280_temperature;BME280_humidity;BME280_pressure;Samples;Min_cycle;Max_cycle;Signal;HPM_P1;HPM_P2
2021/06/14 00:01:05;;;;;;;1.42;1.27;;;;;;;19.17;50.51;99261.97;5074013;28;20026;-76
2021/06/14 00:03:30;;;;;;;1.17;1.00;;;;;;;19.36;50.50;99300.09;5073863;28;20074;-77
2021/06/14 00:05:56;;;;;;;3.78;1.20;;;;;;;19.69;50.89;99347.56;5073712;28;20047;-75
2021/06/14 00:08:26;;;;;;;1.63;1.00;;;;;;;19.54;51.07;99345.44;5072452;28;20469;-77
2021/06/14 00:10:54;;;;;;;2.72;1.67;;;;;;;19.31;50.94;99316.84;5073359;28;20032;-77
2021/06/14 00:13:20;;;;;;;2.10;1.60;;;;;;;19.02;51.03;99265.19;5073867;28;20021;-78
2021/06/14 00:15:47;;;;;;;1.98;1.33;;;;;;;19.52;51.21;99346.69;5073646;28;20035;-77
2021/06/14 00:18:13;;;;;;;4.43;1.70;;;;;;;19.52;51.46;99352.88;5072390;28;20012;-77
2021/06/14 00:20:41;;;;;;;2.88;1.50;;;;;;;19.09;51.28;99280.28;5073506;28;20024;-77
2021/06/14 00:23:08;;;;;;;2.13;1.50;;;;;;;19.12;51.43;99293.19;5072288;28;20489;-77
2021/06/14 00:25:35;;;;;;;2.42;1.85;;;;;;;19.41;51.12;99353.72;5073546;28;20034;-76
2021/06/14 00:28:01;;;;;;;2.10;1.80;;;;;;;19.51;51.25;99372.66;5073761;28;20503;-78
2021/06/14 00:30:35;;;;;;;3.60;1.80;;;;;;;19.51;51.31;99383.38;5072091;28;20028;-77
2021/06/14 00:33:02;;;;;;;2.88;1.50;;;;;;;19.16;51.08;99347.88;5073222;28;20055;-76
2021/06/14 00:35:27;;;;;;;2.50;1.30;;;;;;;19.21;51.18;99347.97;5073346;28;20032;-77
2021/06/14 00:37:53;;;;;;;2.72;1.30;;;;;;;19.05;51.15;99320.91;5072076;28;20511;-77
2021/06/14 00:40:19;;;;;;;2.38;1.45;;;;;;;18.83;51.34;99306.56;5073104;28;20056;-77
2021/06/14 00:42:45;;;;;;;2.95;1.70;;;;;;;18.84;51.69;99300.16;5073062;28;20432;-76
2021/06/14 00:45:15;;;;;;;4.10;1.48;;;;;;;19.33;51.94;99383.56;5072671;28;20161;-75
2021/06/14 00:47:44;;;;;;;1.70;1.15;;;;;;;19.01;52.29;99335.81;5072757;28;20035;-77
2021/06/14 00:50:10;;;;;;;1.17;1.08;;;;;;;18.86;52.77;99324.00;5073457;28;20459;-78
2021/06/14 00:52:37;;;;;;;1.02;0.98;;;;;;;18.98;53.05;99328.28;5072264;28;20024;-77
2021/06/14 00:55:05;;;;;;;1.85;0.95;;;;;;;18.60;53.43;99274.50;5073488;28;20035;-76
2021/06/14 00:57:30;;;;;;;1.27;1.15;;;;;;;19.13;53.96;99362.53;5073149;28;20032;-76
2021/06/14 00:59:56;;;;;;;1.77;1.05;;;;;;;18.65;54.03;99290.69;5073195;28;20024;-76
2021/06/14 01:02:21;;;;;;;1.20;1.00;;;;;;;18.98;53.83;99330.94;5073244;28;20021;-77
2021/06/14 01:04:47;;;;;;;1.90;0.95;;;;;;;19.03;53.62;99347.09;5072970;28;20413;-77
2021/06/14 01:07:13;;;;;;;1.17;0.90;;;;;;;18.94;53.69;99342.34;5071493;28;20419;-76
2021/06/14 01:09:39;;;;;;;3.80;0.90;;;;;;;19.23;53.83;99396.72;5072771;28;20028;-76
2021/06/14 01:12:08;;;;;;;2.28;0.90;;;;;;;19.13;53.96;99373.25;5071578;28;20477;-76
2021/06/14 01:14:33;;;;;;;1.13;0.90;;;;;;;19.17;53.83;99377.06;5073961;28;20058;-77
2021/06/14 01:17:09;;;;;;;1.80;0.93;;;;;;;19.17;53.76;99373.56;5072210;28;20455;-76
2021/06/14 01:20:11;;;;;;;2.22;0.82;;;;;;;19.14;53.70;99366.03;5072478;28;20082;-74
2021/06/14 01:22:59;;;;;;;5.45;0.85;;;;;;;19.11;53.89;99361.16;5072659;28;20017;-76
2021/06/14 01:25:34;;;;;;;2.70;0.90;;;;;;;19.07;54.03;99368.03;5072193;28;20013;-75
2021/06/14 01:28:01;;;;;;;0.77;0.70;;;;;;;18.93;54.06;99343.41;5071104;28;20020;-78
2021/06/14 01:30:33;;;;;;;2.22;0.93;;;;;;;18.59;53.82;99303.09;5070779;28;20050;-76
2021/06/14 01:32:59;;;;;;;;;;;;;;;18.75;53.55;99352.41;5071074;28;20029;-78
2021/06/14 01:35:33;;;;;;;2.22;0.90;;;;;;;18.83;53.85;99360.06;5072403;28;19983;-76
2021/06/14 01:38:00;;;;;;;2.28;0.93;;;;;;;18.87;53.23;99345.16;5072224;28;20077;-76
2021/06/14 01:40:26;;;;;;;2.25;0.60;;;;;;;18.89;53.04;99351.09;5072058;28;20105;-77
2021/06/14 01:42:56;;;;;;;1.80;0.70;;;;;;;18.91;52.85;99350.84;5072401;28;20060;-77
2021/06/14 01:45:23;;;;;;;2.40;0.98;;;;;;;18.51;52.46;99289.25;5071573;28;20035;-77
2021/06/14 01:47:49;;;;;;;3.08;0.95;;;;;;;18.61;52.45;99306.41;5071940;28;20481;-77
2021/06/14 01:50:15;;;;;;;3.28;1.15;;;;;;;19.01;52.32;99359.09;5070413;28;20115;-76
2021/06/14 01:52:41;;;;;;;1.48;0.95;;;;;;;18.83;52.91;99341.34;5071132;28;20455;-76
2021/06/14 01:55:08;;;;;;;2.78;1.10;;;;;;;18.33;53.37;99282.19;5070779;28;20562;-76
2021/06/14 01:57:34;;;;;;;0.90;0.77;;;;;;;17.92;53.76;99222.53;5071734;28;20016;-76
2021/06/14 02:00:00;;;;;;;1.15;0.90;;;;;;;18.83;53.99;99356.56;5071022;28;20021;-76
2021/06/14 02:02:28;;;;;;;2.85;1.10;;;;;;;18.34;54.06;99295.34;5072120;28;20028;-76
2021/06/14 02:04:55;;;;;;;2.60;1.10;;;;;;;18.41;54.32;99297.88;5071880;28;20044;-76
2021/06/14 02:07:22;;;;;;;1.92;0.80;;;;;;;18.62;54.35;99344.63;5071833;28;20090;-76
2021/06/14 02:09:48;;;;;;;3.38;1.00;;;;;;;18.28;54.26;99295.47;5071596;28;20032;-76
2021/06/14 02:12:14;;;;;;;3.20;1.00;;;;;;;18.46;54.53;99313.22;5071390;28;20044;-76
2021/06/14 02:14:42;;;;;;;1.88;0.80;;;;;;;18.41;54.35;99308.56;5072073;28;20523;-76
2021/06/14 02:17:11;;;;;;;1.70;0.70;;;;;;;18.57;54.26;99320.41;5071863;28;20028;-76
2021/06/14 02:19:42;;;;;;;2.55;1.30;;;;;;;18.50;54.53;99314.38;5071354;28;20020;-76
2021/06/14 02:22:09;;;;;;;1.80;1.07;;;;;;;18.83;54.46;99364.59;5071267;28;20028;-76
2021/06/14 02:24:35;;;;;;;2.92;0.90;;;;;;;18.79;54.67;99364.25;5071863;28;20070;-76
2021/06/14 02:27:01;;;;;;;1.98;1.10;;;;;;;18.64;54.90;99334.53;5071716;28;20028;-76
2021/06/14 02:29:27;;;;;;;2.65;1.08;;;;;;;18.86;54.52;99372.16;5070436;28;20048;-76
2021/06/14 02:31:53;;;;;;;3.33;1.20;;;;;;;18.66;54.44;99333.25;5071586;28;20020;-76
2021/06/14 02:34:19;;;;;;;2.40;0.80;;;;;;;18.78;54.36;99359.16;5070097;28;20409;-76
2021/06/14 02:36:46;;;;;;;4.65;1.23;;;;;;;18.41;54.50;99312.06;5071675;28;20059;-76
2021/06/14 02:39:15;;;;;;;3.50;0.90;;;;;;;18.37;54.66;99310.91;5071578;28;20028;-77
2021/06/14 02:41:43;;;;;;;2.35;1.58;;;;;;;18.64;54.70;99345.22;5071443;28;20020;-76
2021/06/14 02:44:10;;;;;;;3.15;1.30;;;;;;;18.41;54.71;99317.41;5071710;28;20405;-76
2021/06/14 02:46:41;;;;;;;3.50;1.30;;;;;;;18.76;54.90;99348.69;5071676;28;20470;-76
2021/06/14 02:49:08;;;;;;;;;;;;;;;18.58;55.27;99354.97;5072218;28;20515;-77
2021/06/14 02:51:35;;;;;;;3.42;1.00;;;;;;;18.68;54.91;99352.53;5071630;28;19936;-77
2021/06/14 02:54:04;;;;;;;1.10;1.00;;;;;;;18.09;54.63;99249.34;5071529;28;20028;-76
2021/06/14 02:56:36;;;;;;;4.20;1.17;;;;;;;18.78;54.74;99356.47;5070993;28;20021;-77
2021/06/14 02:59:04;;;;;;;2.25;1.00;;;;;;;18.37;54.67;99284.16;5071132;28;20017;-77
2021/06/14 03:01:31;;;;;;;2.17;1.20;;;;;;;18.72;54.77;99342.19;5071426;28;20021;-77
2021/06/14 03:03:58;;;;;;;4.78;1.40;;;;;;;18.28;54.72;99266.06;5071260;28;20025;-77
2021/06/14 03:06:26;;;;;;;2.33;1.33;;;;;;;18.42;54.97;99291.50;5071415;28;20485;-77
2021/06/14 03:08:52;;;;;;;2.90;1.65;;;;;;;18.82;55.08;99342.38;5070103;28;20017;-77
2021/06/14 03:11:22;;;;;;;3.80;1.48;;;;;;;18.87;55.05;99361.22;5071825;28;20028;-76
2021/06/14 03:13:48;;;;;;;1.60;1.40;;;;;;;18.64;55.50;99310.47;5074868;28;20070;-78
2021/06/14 03:16:14;;;;;;;2.65;1.33;;;;;;;18.50;55.03;99299.16;5074853;28;20033;-76
2021/06/14 03:18:42;;;;;;;3.80;1.70;;;;;;;18.45;55.00;99282.19;5074999;28;20036;-75
2021/06/14 03:21:08;;;;;;;2.05;1.52;;;;;;;18.62;54.99;99305.34;5074886;28;20105;-77
2021/06/14 03:23:34;;;;;;;2.15;1.67;;;;;;;18.73;54.91;99328.56;5074635;28;20504;-76
2021/06/14 03:26:02;;;;;;;3.83;1.40;;;;;;;18.86;55.04;99332.84;5073224;28;20115;-76
2021/06/14 03:28:27;;;;;;;3.10;1.60;;;;;;;18.92;55.07;99336.44;5074141;28;20473;-77
2021/06/14 03:30:54;;;;;;;1.92;1.60;;;;;;;18.82;54.95;99314.81;5074715;28;20024;-75
2021/06/14 03:33:20;;;;;;;4.45;1.70;;;;;;;18.38;55.11;99267.09;5074311;28;20133;-76
2021/06/14 03:35:47;;;;;;;2.00;1.20;;;;;;;18.97;55.02;99353.41;5074581;28;20047;-76
2021/06/14 03:38:13;;;;;;;2.58;1.50;;;;;;;18.50;54.96;99277.75;5074460;28;20031;-77
2021/06/14 03:40:39;;;;;;;4.03;1.75;;;;;;;18.96;55.01;99353.63;5074170;28;20028;-75
2021/06/14 03:43:05;;;;;;;4.57;1.73;;;;;;;18.62;55.43;99313.38;5074293;28;20024;-75
2021/06/14 03:45:33;;;;;;;3.72;2.10;;;;;;;18.75;55.50;99324.84;5074130;28;20024;-77
2021/06/14 03:47:59;;;;;;;4.57;3.58;;;;;;;18.87;55.48;99355.06;5074340;28;20454;-77
2021/06/14 03:50:25;;;;;;;2.22;1.85;;;;;;;18.85;55.42;99362.50;5074248;28;20032;-76
2021/06/14 03:52:50;;;;;;;4.68;1.52;;;;;;;18.57;55.24;99321.22;5074242;28;20049;-75
2021/06/14 03:55:16;;;;;;;3.17;1.77;;;;;;;18.82;55.26;99357.63;5074099;28;20500;-76
2021/06/14 03:57:42;;;;;;;3.03;1.80;;;;;;;18.79;55.36;99368.78;5072625;28;20025;-77
2021/06/14 04:00:11;;;;;;;4.38;1.90;;;;;;;18.70;55.63;99347.75;5073799;28;20500;-75
2021/06/14 04:02:36;;;;;;;2.80;1.70;;;;;;;18.31;55.67;99273.59;5074108;28;20020;-75
2021/06/14 04:05:03;;;;;;;2.03;1.70;;;;;;;18.85;55.97;99363.31;5074023;28;20477;-76
2021/06/14 04:07:28;;;;;;;1.50;1.40;;;;;;;18.53;55.58;99296.00;5073955;28;20051;-76
2021/06/14 04:09:59;;;;;;;2.45;1.13;;;;;;;18.75;55.48;99331.00;5073892;28;20485;-76
2021/06/14 04:12:24;;;;;;;3.55;1.60;;;;;;;18.84;55.38;99334.94;5074089;28;20021;-76
2021/06/14 04:14:49;;;;;;;2.15;1.77;;;;;;;19.04;55.46;99355.94;5073423;28;20029;-77
2021/06/14 04:17:15;;;;;;;3.65;1.80;;;;;;;18.88;55.44;99337.97;5073533;28;20128;-76
2021/06/14 04:19:40;;;;;;;3.20;1.98;;;;;;;18.68;55.69;99319.63;5073537;28;20021;-76
2021/06/14 04:22:06;;;;;;;3.20;1.83;;;;;;;18.96;56.11;99367.81;5073301;28;20012;-76
2021/06/14 04:24:32;;;;;;;3.10;1.80;;;;;;;18.70;56.25;99333.56;5072842;28;20021;-76
2021/06/14 04:26:57;;;;;;;2.30;1.50;;;;;;;18.73;56.66;99341.13;5072232;28;20019;-76
2021/06/14 04:29:23;;;;;;;3.47;2.00;;;;;;;18.84;57.18;99367.03;5073978;28;20107;-75
2021/06/14 04:31:48;;;;;;;6.50;2.20;;;;;;;18.80;57.35;99376.59;5074435;28;20103;-76
2021/06/14 04:34:14;;;;;;;4.03;2.50;;;;;;;18.82;57.54;99387.88;5073097;28;20033;-77
2021/06/14 04:36:39;;;;;;;4.60;2.15;;;;;;;18.41;57.86;99328.09;5073701;28;20046;-77
2021/06/14 04:39:05;;;;;;;4.28;2.50;;;;;;;18.66;58.12;99370.69;5071819;28;20020;-77
2021/06/14 04:41:31;;;;;;;4.93;2.30;;;;;;;18.80;58.01;99398.00;5071851;28;20028;-76
2021/06/14 04:43:56;;;;;;;5.65;2.20;;;;;;;18.52;58.13;99369.25;5073214;28;20024;-77
2021/06/14 04:46:22;;;;;;;3.10;2.63;;;;;;;18.47;58.49;99371.78;5073169;28;20025;-77
2021/06/14 04:48:48;;;;;;;4.50;2.38;;;;;;;18.38;58.87;99357.97;5072860;28;20032;-76
2021/06/14 04:51:13;;;;;;;5.28;2.17;;;;;;;18.21;59.28;99357.03;5071709;28;20025;-77
2021/06/14 04:53:40;;;;;;;3.95;2.50;;;;;;;18.10;59.54;99350.66;5072723;28;20035;-77
2021/06/14 04:56:06;;;;;;;4.13;2.90;;;;;;;18.44;59.46;99396.31;5072806;28;20020;-77
2021/06/14 04:58:33;;;;;;;3.13;2.83;;;;;;;18.12;59.58;99360.28;5072735;28;20035;-76
2021/06/14 05:00:58;;;;;;;2.90;2.47;;;;;;;18.31;59.48;99397.38;5072648;28;20481;-77
2021/06/14 05:03:23;;;;;;;4.97;2.60;;;;;;;17.79;59.29;99326.91;5060436;28;20032;-77
2021/06/14 05:05:49;;;;;;;3.40;2.88;;;;;;;17.94;59.31;99356.69;5064705;28;20056;-77
2021/06/14 05:08:18;;;;;;;3.53;2.95;;;;;;;18.11;59.09;99383.53;5071612;28;20028;-76
2021/06/14 05:10:45;;;;;;;6.13;2.88;;;;;;;18.01;59.16;99369.91;5072402;28;20028;-77
2021/06/14 05:13:10;;;;;;;4.47;2.90;;;;;;;17.78;59.32;99352.78;5065707;28;20417;-76
2021/06/14 05:15:36;;;;;;;3.90;2.83;;;;;;;17.75;60.01;99361.25;5052373;28;20036;-77
2021/06/14 05:18:01;;;;;;;6.00;3.00;;;;;;;17.80;60.11;99376.59;5052269;28;20036;-76
2021/06/14 05:20:29;;;;;;;3.80;2.60;;;;;;;17.48;60.20;99312.75;5053234;28;20032;-77
2021/06/14 05:22:55;;;;;;;2.72;2.53;;;;;;;17.89;60.28;99377.91;5053791;28;20032;-76
2021/06/14 05:25:21;;;;;;;2.80;2.58;;;;;;;17.60;60.87;99352.84;5052500;28;20494;-76
2021/06/14 05:27:46;;;;;;;3.35;2.78;;;;;;;17.60;59.99;99354.69;5052585;28;20025;-77
2021/06/14 05:30:12;;;;;;;4.18;2.97;;;;;;;17.77;59.78;99382.38;5063890;28;20025;-77
2021/06/14 05:32:38;;;;;;;4.43;2.70;;;;;;;17.34;60.30;99316.66;5072609;28;20493;-77
2021/06/14 05:35:06;;;;;;;3.80;2.67;;;;;;;17.83;59.99;99392.16;5072436;28;20031;-77
2021/06/14 05:37:31;;;;;;;4.60;2.63;;;;;;;17.29;59.92;99313.06;5071882;28;20509;-77
2021/06/14 05:39:57;;;;;;;4.28;3.00;;;;;;;17.32;59.36;99313.41;5063069;28;20045;-77
2021/06/14 05:42:22;;;;;;;4.50;3.10;;;;;;;17.58;59.68;99362.09;5068523;28;20111;-79
2021/06/14 05:44:47;;;;;;;4.25;2.92;;;;;;;17.09;59.28;99287.47;5063273;28;20023;-78
2021/06/14 05:47:13;;;;;;;4.63;2.72;;;;;;;17.82;59.66;99411.09;5057059;28;20493;-78
2021/06/14 05:49:38;;;;;;;5.53;2.85;;;;;;;17.48;60.14;99384.81;5057473;28;20082;-79
2021/06/14 05:52:04;;;;;;;7.78;3.55;;;;;;;16.83;60.54;99293.13;5054084;28;20025;-78
2021/06/14 05:54:29;;;;;;;6.60;3.30;;;;;;;17.18;61.10;99360.00;5080738;28;20024;-79
2021/06/14 05:56:55;;;;;;;6.43;3.55;;;;;;;17.40;61.59;99392.34;5070931;28;20031;-80
2021/06/14 05:59:20;;;;;;;6.50;3.30;;;;;;;16.94;61.26;99308.34;5060686;28;20108;-78
2021/06/14 06:01:46;;;;;;;7.80;3.33;;;;;;;17.44;61.23;99388.19;5051839;28;20107;-78
2021/06/14 06:04:11;;;;;;;5.75;3.20;;;;;;;17.03;61.29;99338.19;5056416;28;20021;-78
2021/06/14 06:06:36;;;;;;;6.43;3.95;;;;;;;17.42;61.29;99391.06;5058702;28;20052;-78
2021/06/14 06:09:02;;;;;;;5.30;3.70;;;;;;;17.09;61.32;99347.97;5070612;28;20024;-79
2021/06/14 06:11:28;;;;;;;6.25;4.30;;;;;;;16.77;60.64;99302.00;5071766;28;20082;-78
2021/06/14 06:13:53;;;;;;;4.57;2.75;;;;;;;17.07;60.30;99328.72;5075515;28;20020;-78
2021/06/14 06:16:19;;;;;;;4.15;2.70;;;;;;;17.06;59.91;99324.41;5061407;28;20481;-78
2021/06/14 06:18:44;;;;;;;5.88;3.03;;;;;;;17.08;59.90;99328.47;5058089;28;20031;-78
2021/06/14 06:21:09;;;;;;;4.32;2.97;;;;;;;17.01;59.85;99313.59;5059795;28;20017;-77
2021/06/14 06:23:35;;;;;;;7.00;3.58;;;;;;;17.36;59.87;99359.13;5053259;28;20104;-78
2021/06/14 06:26:00;;;;;;;5.50;2.78;;;;;;;17.32;59.68;99323.28;5051927;28;20028;-76
2021/06/14 06:28:26;;;;;;;3.78;2.80;;;;;;;17.46;59.67;99344.19;5061615;28;20028;-77
2021/06/14 06:30:51;;;;;;;7.25;3.47;;;;;;;17.85;59.87;99394.63;5054344;28;20025;-75
2021/06/14 06:33:17;;;;;;;5.45;4.22;;;;;;;17.45;59.85;99331.91;5054559;28;20428;-74
2021/06/14 06:35:43;;;;;;;5.90;2.75;;;;;;;17.43;59.95;99301.94;5073326;28;20424;-76
2021/06/14 06:38:08;;;;;;;10.68;5.20;;;;;;;17.45;59.88;99283.03;5056448;28;20029;-75
2021/06/14 06:40:33;;;;;;;9.15;4.60;;;;;;;17.81;59.41;99321.31;5054541;28;20083;-75
2021/06/14 06:43:00;;;;;;;3.67;2.80;;;;;;;18.17;59.30;99371.91;5056317;28;20107;-77
2021/06/14 06:45:26;;;;;;;5.45;3.78;;;;;;;18.00;59.42;99339.72;5064053;28;20028;-76
2021/06/14 06:47:52;;;;;;;5.10;3.60;;;;;;;17.84;59.58;99297.66;5060511;28;20020;-75
2021/06/14 06:50:19;;;;;;;3.80;3.08;;;;;;;18.51;59.19;99383.66;5076074;28;20028;-76
2021/06/14 06:52:44;;;;;;;4.97;2.80;;;;;;;18.24;59.11;99321.84;5078487;28;20020;-75
2021/06/14 06:55:12;;;;;;;3.63;2.50;;;;;;;18.72;58.92;99379.63;5085414;28;20028;-77
2021/06/14 06:57:39;;;;;;;3.05;2.15;;;;;;;18.78;58.62;99375.19;5076903;28;20078;-76
2021/06/14 07:00:23;;;;;;;4.00;1.95;;;;;;;18.86;59.25;99375.66;5080064;28;20093;-77
2021/06/14 07:02:48;;;;;;;2.75;1.60;;;;;;;18.35;57.63;99283.59;5079708;28;20012;-75
2021/06/14 07:05:15;;;;;;;2.88;1.85;;;;;;;18.91;57.53;99364.22;5075123;28;20071;-75
2021/06/14 07:07:41;;;;;;;3.50;1.80;;;;;;;18.69;57.37;99327.41;5060783;28;20053;-75
2021/06/14 07:10:07;;;;;;;3.55;2.22;;;;;;;18.95;57.92;99368.06;5053909;28;20463;-75
2021/06/14 07:12:33;;;;;;;5.22;1.90;;;;;;;18.89;57.00;99358.31;5063695;28;20032;-75
2021/06/14 07:14:59;;;;;;;2.67;2.05;;;;;;;19.02;56.70;99374.91;5073933;28;20032;-76
2021/06/14 07:17:25;;;;;;;2.63;1.67;;;;;;;18.55;56.73;99285.88;5069035;28;20060;-76
2021/06/14 07:19:50;;;;;;;4.00;2.17;;;;;;;18.45;56.93;99266.16;5071918;28;20060;-74
2021/06/14 07:22:16;;;;;;;3.28;1.88;;;;;;;19.07;56.81;99360.81;5074006;28;20033;-76
2021/06/14 07:24:41;;;;;;;5.70;2.00;;;;;;;19.11;56.75;99355.81;5068456;28;20047;-75
2021/06/14 07:27:07;;;;;;;3.88;2.25;;;;;;;18.87;56.88;99328.31;5057061;28;20040;-75
2021/06/14 07:29:32;;;;;;;3.30;1.70;;;;;;;19.09;56.44;99356.03;5066159;28;20025;-75
2021/06/14 07:31:58;;;;;;;3.83;2.50;;;;;;;19.17;56.92;99368.22;5074159;28;20021;-77
2021/06/14 07:34:25;;;;;;;4.72;2.17;;;;;;;19.16;56.82;99372.78;5068742;28;20029;-76
2021/06/14 07:36:51;;;;;;;3.53;2.42;;;;;;;19.15;57.37;99357.75;5054306;28;20440;-75
2021/06/14 07:39:16;;;;;;;1.67;1.40;;;;;;;18.76;56.52;99284.50;5053645;28;20031;-76
2021/06/14 07:41:42;;;;;;;2.45;1.60;;;;;;;19.04;56.48;99315.78;5053708;28;20021;-76
2021/06/14 07:44:08;;;;;;;2.30;1.60;;;;;;;19.22;56.03;99309.44;5072460;28;20488;-76
2021/06/14 07:46:33;;;;;;;2.35;1.80;;;;;;;19.03;54.59;99288.22;5083295;28;20078;-76
2021/06/14 07:48:59;;;;;;;2.53;1.73;;;;;;;19.73;53.75;99358.59;5071832;28;20035;-76
2021/06/14 07:51:24;;;;;;;3.40;1.90;;;;;;;19.62;53.91;99338.84;5072175;28;20024;-76
2021/06/14 07:53:50;;;;;;;5.60;2.10;;;;;;;19.66;53.81;99334.66;5081975;28;20085;-77
2021/06/14 07:56:18;;;;;;;3.60;1.92;;;;;;;19.94;53.55;99357.88;5093519;28;20194;-76
2021/06/14 07:58:44;;;;;;;4.53;1.95;;;;;;;19.63;52.80;99298.44;5080305;28;20059;-75
2021/06/14 08:01:10;;;;;;;2.45;1.80;;;;;;;19.44;52.25;99261.41;5069863;28;20036;-76
2021/06/14 08:03:35;;;;;;;2.25;1.85;;;;;;;19.88;52.57;99324.03;5079968;28;20021;-77
2021/06/14 08:06:04;;;;;;;3.45;1.80;;;;;;;20.13;52.58;99359.28;5079040;28;20548;-77
2021/06/14 08:08:30;;;;;;;6.70;3.55;;;;;;;19.91;52.43;99296.72;5062847;28;20500;-76
2021/06/14 08:10:56;;;;;;;4.97;3.03;;;;;;;20.26;51.77;99331.31;5064851;28;20025;-76
2021/06/14 08:13:22;;;;;;;5.65;2.53;;;;;;;20.34;51.24;99346.19;5069489;28;20040;-77
2021/06/14 08:15:47;;;;;;;3.22;2.30;;;;;;;20.35;51.31;99331.72;5077774;28;20023;-76
2021/06/14 08:20:45;;;;;;;5.55;4.18;;;;;;;20.31;51.60;99296.53;5056756;28;20444;-77
2021/06/14 08:25:55;;;;;;;4.43;1.88;;;;;;;20.52;51.05;99276.19;5052491;28;20040;-77
2021/06/14 08:28:20;;;;;;;4.60;2.08;;;;;;;20.73;50.65;99315.63;5055228;28;20025;-74
2021/06/14 08:30:46;;;;;;;3.90;2.35;;;;;;;20.52;50.96;99286.94;5051866;28;20029;-75
2021/06/14 08:33:11;;;;;;;3.53;2.08;;;;;;;20.47;51.08;99282.31;5056120;28;20017;-73
2021/06/14 08:35:37;;;;;;;4.45;2.22;;;;;;;20.48;51.55;99280.44;5056993;28;20034;-74
2021/06/14 08:38:03;;;;;;;5.80;2.28;;;;;;;20.74;51.71;99277.00;5067220;28;20133;-75
2021/06/14 08:40:35;;;;;;;2.83;2.05;;;;;;;21.13;51.00;99309.13;5052040;28;20106;-76
2021/06/14 08:43:05;;;;;;;8.88;2.35;;;;;;;21.17;50.58;99294.94;5063196;28;20053;-75
2021/06/14 08:45:34;;;;;;;4.72;2.20;;;;;;;21.09;50.34;99265.06;5070562;28;20497;-76
2021/06/14 08:48:00;;;;;;;2.90;2.00;;;;;;;21.46;49.82;99316.19;5062797;28;20024;-77
2021/06/14 08:50:26;;;;;;;5.68;1.80;;;;;;;21.54;49.95;99311.19;5057130;28;20028;-74
2021/06/14 08:52:52;;;;;;;2.63;1.92;;;;;;;21.72;49.52;99314.56;5057846;28;20028;-74
2021/06/14 08:55:18;;;;;;;4.43;2.00;;;;;;;21.91;49.71;99309.63;5050271;28;20134;-75
2021/06/14 08:57:44;;;;;;;4.63;2.78;;;;;;;21.82;48.40;99260.91;5050480;28;20411;-75
2021/06/14 09:00:17;;;;;;;3.65;1.90;;;;;;;22.13;47.58;99304.97;5057620;28;20015;-75
2021/06/14 09:02:44;;;;;;;3.47;2.67;;;;;;;22.31;45.67;99301.06;5051576;28;20044;-75
2021/06/14 09:05:10;;;;;;;4.32;2.45;;;;;;;22.56;44.94;99301.19;5049754;28;20525;-75
2021/06/14 09:07:35;;;;;;;4.60;2.20;;;;;;;22.43;45.10;99259.44;5064235;28;20104;-76
2021/06/14 09:10:02;;;;;;;8.90;2.90;;;;;;;22.57;44.78;99258.94;5051762;28;20103;-76
2021/06/14 09:12:41;;;;;;;5.28;1.80;;;;;;;23.12;43.78;99286.09;5055389;28;20100;-76
2021/06/14 09:15:12;;;;;;;2.55;1.80;;;;;;;22.64;43.36;99211.06;5060227;28;20029;-76
2021/06/14 09:17:37;;;;;;;3.43;2.00;;;;;;;22.96;42.31;99294.38;5066467;28;20506;-75
2021/06/14 09:20:10;;;;;;;3.55;1.88;;;;;;;22.93;41.47;99281.44;5059633;28;20104;-76
2021/06/14 09:22:36;;;;;;;4.05;2.45;;;;;;;22.63;41.80;99247.94;5066587;28;20021;-75
2021/06/14 09:25:12;;;;;;;6.97;2.70;;;;;;;22.84;41.00;99286.53;5061475;28;20405;-75
2021/06/14 09:27:41;;;;;;;9.02;5.38;;;;;;;22.97;41.63;99280.66;5050815;28;20021;-77
2021/06/14 09:30:31;;;;;;;3.75;2.03;;;;;;;23.34;38.90;99291.25;5055092;28;20111;-76
2021/06/14 09:33:06;;;;;;;6.45;2.38;;;;;;;23.34;37.37;99272.38;5055352;28;20053;-76
2021/06/14 09:35:40;;;;;;;4.80;1.85;;;;;;;23.13;39.10;99278.81;5051704;28;20028;-77
2021/06/14 09:38:15;;;;;;;3.00;1.70;;;;;;;22.98;39.32;99259.91;5051221;28;20479;-74
2021/06/14 09:40:46;;;;;;;3.03;1.40;;;;;;;23.03;39.51;99276.88;5050529;28;20029;-76
2021/06/14 09:43:41;;;;;;;2.10;1.92;;;;;;;22.88;39.59;99278.72;5062832;28;20044;-76
2021/06/14 09:46:16;;;;;;;5.30;2.38;;;;;;;22.45;40.72;99219.63;5050928;28;20063;-76
2021/06/14 09:48:42;;;;;;;4.57;2.65;;;;;;;22.97;41.09;99272.56;5055802;28;20063;-76
2021/06/14 09:51:07;;;;;;;7.13;2.53;;;;;;;23.18;40.42;99259.16;5062626;28;20021;-76
2021/06/14 09:53:47;;;;;;;5.43;2.50;;;;;;;23.05;40.35;99228.19;5053733;28;20070;-76
2021/06/14 09:56:16;;;;;;;4.88;2.00;;;;;;;23.83;39.08;99271.91;5084815;28;20476;-77
2021/06/14 09:58:43;;;;;;;3.67;1.90;;;;;;;24.06;38.29;99247.06;5078440;28;20497;-77
2021/06/14 10:01:08;;;;;;;5.78;1.67;;;;;;;24.19;37.91;99267.25;5073218;28;20130;-76
2021/06/14 10:03:46;;;;;;;2.83;1.70;;;;;;;23.97;37.47;99270.28;5079060;28;20027;-76
2021/06/14 10:06:12;;;;;;;5.45;2.38;;;;;;;23.46;38.58;99227.13;5075878;28;20124;-75
2021/06/14 10:08:38;;;;;;;4.30;2.42;;;;;;;22.97;38.88;99178.31;5070701;28;20060;-77
2021/06/14 10:11:12;;;;;;;6.28;2.10;;;;;;;23.41;38.80;99280.22;5086174;28;20103;-77
2021/06/14 10:13:43;;;;;;;3.53;1.73;;;;;;;23.01;38.62;99276.34;5084293;28;20044;-77
2021/06/14 10:16:11;;;;;;;2.53;2.03;;;;;;;22.48;39.10;99254.06;5070640;28;20032;-76
2021/06/14 10:18:51;;;;;;;3.53;2.15;;;;;;;22.14;39.35;99252.81;5080593;28;20043;-76
2021/06/14 10:21:26;;;;;;;5.57;1.50;;;;;;;22.07;39.97;99311.38;5071393;28;20043;-76
2021/06/14 10:23:53;;;;;;;8.40;2.10;;;;;;;21.65;40.99;99304.03;5077406;28;20025;-77
2021/06/14 10:26:23;;;;;;;2.33;1.65;;;;;;;21.07;42.12;99275.25;5078304;28;20031;-77
2021/06/14 10:28:49;;;;;;;5.45;2.13;;;;;;;20.74;43.13;99279.69;5073652;28;20077;-76
2021/06/14 10:31:16;;;;;;;6.22;2.05;;;;;;;20.33;43.61;99215.84;5074502;28;20078;-77
2021/06/14 10:33:46;;;;;;;3.88;2.65;;;;;;;20.84;44.48;99303.97;5075353;28;20032;-76
2021/06/14 10:36:13;;;;;;;4.97;2.40;;;;;;;20.53;44.75;99264.41;5078406;28;20025;-76
2021/06/14 10:38:40;;;;;;;4.90;1.98;;;;;;;20.72;44.28;99276.44;5070568;28;20033;-76
2021/06/14 10:41:06;;;;;;;3.80;1.83;;;;;;;20.81;43.83;99290.25;5082393;28;20031;-77
2021/06/14 10:43:32;;;;;;;3.00;2.00;;;;;;;20.50;43.66;99236.22;5099589;28;20035;-76
2021/06/14 10:45:58;;;;;;;3.47;1.83;;;;;;;20.33;43.97;99205.13;5086458;28;20047;-76
2021/06/14 10:48:30;;;;;;;5.45;2.20;;;;;;;20.46;43.87;99247.69;5071596;28;20037;-76
2021/06/14 10:50:57;;;;;;;3.85;1.52;;;;;;;20.13;44.41;99233.31;5084581;28;20489;-76
2021/06/14 10:53:28;;;;;;;5.25;4.10;;;;;;;20.50;44.69;99283.69;5089010;28;20107;-76
2021/06/14 10:55:55;;;;;;;2.60;2.38;;;;;;;20.24;44.55;99224.34;5080062;28;20020;-76
2021/06/14 10:58:21;;;;;;;9.45;2.17;;;;;;;20.47;44.31;99247.44;5075443;28;20033;-77
2021/06/14 11:01:03;;;;;;;3.33;2.10;;;;;;;20.36;43.49;99210.81;5070876;28;20035;-76
2021/06/14 11:03:46;;;;;;;9.32;2.53;;;;;;;20.60;44.05;99230.97;5074188;28;20031;-76
2021/06/14 11:06:26;;;;;;;6.13;3.00;;;;;;;20.89;44.52;99277.19;5072458;28;20474;-76
2021/06/14 11:09:14;;;;;;;2.80;2.30;;;;;;;20.79;44.31;99258.28;5075200;28;20097;-77
2021/06/14 11:11:52;;;;;;;4.63;2.63;;;;;;;20.93;44.30;99274.81;5067132;28;20044;-77
2021/06/14 11:14:48;;;;;;;7.32;2.10;;;;;;;21.00;44.11;99275.44;5083498;28;20039;-77
2021/06/14 11:17:19;;;;;;;2.85;2.10;;;;;;;21.11;43.92;99279.03;5076713;28;20039;-75
2021/06/14 11:20:01;;;;;;;5.25;2.10;;;;;;;20.77;44.19;99212.09;5083938;28;20032;-79
2021/06/14 11:22:41;;;;;;;7.55;2.25;;;;;;;21.22;44.38;99275.38;5084554;28;20047;-75
2021/06/14 11:25:16;;;;;;;3.17;1.60;;;;;;;21.19;43.16;99267.84;5085171;28;20516;-76
2021/06/14 11:27:41;;;;;;;4.95;1.75;;;;;;;21.11;43.50;99274.47;5081979;28;20477;-77
2021/06/14 11:30:12;;;;;;;6.97;1.90;;;;;;;20.80;43.38;99227.69;5073730;28;20025;-76
2021/06/14 11:32:39;;;;;;;8.32;2.00;;;;;;;20.94;43.11;99263.03;5084605;28;20031;-76
2021/06/14 11:35:06;;;;;;;2.58;1.73;;;;;;;21.09;43.19;99267.75;5078058;28;20044;-77
2021/06/14 11:37:48;;;;;;;4.60;2.60;;;;;;;21.06;42.97;99273.63;5083412;28;20411;-76
2021/06/14 11:40:16;;;;;;;5.95;3.45;;;;;;;20.85;43.39;99233.16;5078756;28;20036;-76
2021/06/14 11:42:47;;;;;;;3.22;2.47;;;;;;;20.40;44.08;99197.75;5073547;28;20452;-77